createdAt,value
2018-10-15T00:00:23.230Z,13.40
2018-10-15T00:05:27.079Z,13.40
2018-10-15T00:10:30.688Z,13.40
2018-10-15T00:15:34.365Z,13.40
2018-10-15T00:20:38.273Z,13.40
2018-10-15T00:25:41.873Z,13.50
2018-10-15T00:30:45.461Z,13.50
2018-10-15T00:35:49.073Z,13.40
2018-10-15T00:40:52.628Z,13.30
2018-10-15T00:45:56.227Z,13.20
2018-10-15T00:50:59.825Z,13.20
2018-10-15T00:56:04.255Z,13.20
2018-10-15T01:01:08.236Z,13.20
2018-10-15T01:06:11.862Z,13.10
2018-10-15T01:11:18.976Z,12.90
2018-10-15T01:16:22.735Z,12.90
2018-10-15T01:21:26.344Z,12.80
2018-10-15T01:26:35.234Z,12.70
2018-10-15T01:31:39.818Z,12.50
2018-10-15T01:36:43.462Z,12.30
2018-10-15T01:41:47.657Z,12.40
2018-10-15T01:46:51.295Z,12.30
2018-10-15T01:51:54.882Z,12.40
2018-10-15T01:57:02.066Z,12.50
2018-10-15T02:02:06.370Z,12.50
2018-10-15T02:07:10.656Z,12.20
2018-10-15T02:12:14.615Z,12.20
2018-10-15T02:17:18.217Z,12.30
2018-10-15T02:22:22.144Z,12.30
2018-10-15T02:27:27.139Z,12.30
2018-10-15T02:32:30.864Z,12.20
2018-10-15T02:37:34.707Z,12.10
2018-10-15T02:42:38.902Z,12.10
2018-10-15T02:47:42.513Z,12.10
2018-10-15T02:52:46.122Z,12.00
2018-10-15T02:57:50.053Z,11.80
2018-10-15T03:02:53.724Z,11.80
2018-10-15T03:07:57.628Z,11.70
2018-10-15T03:13:01.460Z,11.50
2018-10-15T03:18:05.407Z,11.50
2018-10-15T03:23:09.049Z,11.50
2018-10-15T03:28:14.333Z,11.40
2018-10-15T03:33:17.913Z,11.40
2018-10-15T03:38:21.845Z,11.30
2018-10-15T03:43:25.421Z,11.30
2018-10-15T03:48:29.063Z,11.30
2018-10-15T03:53:32.920Z,11.30
2018-10-15T03:58:36.523Z,11.30
2018-10-15T04:03:40.147Z,11.20
2018-10-15T04:08:43.735Z,11.20
2018-10-15T04:13:47.738Z,11.30
2018-10-15T04:18:51.760Z,11.30
2018-10-15T04:23:55.326Z,11.30
2018-10-15T04:28:58.950Z,11.30
2018-10-15T04:34:02.732Z,11.30
2018-10-15T04:39:09.335Z,11.30
2018-10-15T04:44:12.973Z,11.20
2018-10-15T04:49:16.977Z,11.20
2018-10-15T04:54:20.453Z,11.10
2018-10-15T04:59:24.063Z,11.10
2018-10-15T05:04:27.790Z,11.00
2018-10-15T05:09:31.692Z,10.90
2018-10-15T05:14:35.290Z,11.00
2018-10-15T05:19:39.179Z,11.10
2018-10-15T05:24:43.193Z,11.20
2018-10-15T05:29:46.789Z,11.30
2018-10-15T05:34:50.391Z,11.30
2018-10-15T05:39:54.626Z,11.30
2018-10-15T05:44:58.375Z,11.20
2018-10-15T05:50:01.991Z,11.10
2018-10-15T05:55:07.277Z,11.10
2018-10-15T06:00:12.909Z,11.10
2018-10-15T06:05:18.094Z,11.10
2018-10-15T06:10:21.727Z,11.30
2018-10-15T06:15:28.448Z,11.40
2018-10-15T06:20:33.995Z,11.40
2018-10-15T06:25:37.640Z,11.40
2018-10-15T06:30:41.260Z,11.50
2018-10-15T06:35:44.867Z,11.40
2018-10-15T06:40:48.487Z,11.50
2018-10-15T06:45:52.128Z,11.60
2018-10-15T06:50:55.767Z,11.80
2018-10-15T06:55:59.379Z,12.10
2018-10-15T07:01:03.000Z,12.30
2018-10-15T07:06:07.117Z,12.50
2018-10-15T07:16:19.851Z,12.90
2018-10-15T07:21:23.775Z,13.00
2018-10-15T07:26:27.436Z,13.10
2018-10-15T07:31:32.581Z,13.30
2018-10-15T07:36:39.712Z,13.60
2018-10-15T07:41:44.018Z,13.90
2018-10-15T07:46:47.637Z,13.80
2018-10-15T07:51:51.219Z,13.60
2018-10-15T07:56:56.708Z,13.50
2018-10-15T08:02:00.335Z,13.60
2018-10-15T08:07:04.056Z,13.60
2018-10-15T08:12:08.403Z,13.50
2018-10-15T08:17:12.227Z,13.70
2018-10-15T08:22:16.362Z,14.20
2018-10-15T08:27:20.043Z,14.30
2018-10-15T08:32:23.643Z,14.60
2018-10-15T08:37:27.638Z,14.80
2018-10-15T08:42:31.255Z,15.30
2018-10-15T08:47:34.831Z,15.70
2018-10-15T08:52:38.777Z,16.30
2018-10-15T08:57:42.407Z,16.40
2018-10-15T09:02:49.091Z,16.80
2018-10-15T09:07:52.852Z,17.30
2018-10-15T09:12:58.290Z,18.10
2018-10-15T09:18:02.073Z,19.50
2018-10-15T09:23:05.800Z,22.70
2018-10-15T09:28:09.402Z,25.30
2018-10-15T09:33:13.077Z,26.90
2018-10-15T09:38:17.193Z,28.70
2018-10-15T09:43:21.041Z,29.20
2018-10-15T09:48:24.974Z,29.90
2018-10-15T09:53:28.714Z,30.20
2018-10-15T09:58:32.536Z,29.80
2018-10-15T10:03:36.164Z,30.40
2018-10-15T10:08:40.539Z,30.60
2018-10-15T10:13:45.901Z,31.20
2018-10-15T10:18:49.575Z,30.80
2018-10-15T10:23:57.299Z,30.50
2018-10-15T10:29:01.069Z,30.10
2018-10-15T10:34:22.737Z,29.40
2018-10-15T10:39:27.122Z,28.70
2018-10-15T10:44:30.735Z,27.90
2018-10-15T10:49:34.347Z,27.60
2018-10-15T10:54:38.369Z,26.70
2018-10-15T10:59:41.945Z,26.20
2018-10-15T11:04:45.871Z,26.00
2018-10-15T11:09:49.632Z,26.00
2018-10-15T11:14:53.258Z,25.80
2018-10-15T11:19:56.917Z,26.00
2018-10-15T11:25:03.209Z,26.10
2018-10-15T11:30:07.446Z,25.60
2018-10-15T11:35:11.687Z,25.30
2018-10-15T11:40:15.253Z,25.20
2018-10-15T11:45:19.643Z,26.60
2018-10-15T11:55:26.511Z,27.80
2018-10-15T12:00:30.527Z,28.00
2018-10-15T12:05:34.224Z,28.00
2018-10-15T12:15:41.180Z,28.60
2018-10-15T12:25:48.217Z,29.00
2018-10-15T12:30:51.841Z,29.20
2018-10-15T12:35:55.441Z,29.70
2018-10-15T12:40:59.087Z,30.10
2018-10-15T12:46:02.706Z,30.30
2018-10-15T12:51:06.338Z,30.90
2018-10-15T12:56:10.515Z,31.20
2018-10-15T13:01:14.106Z,31.40
2018-10-15T13:06:18.296Z,31.70
2018-10-15T13:11:21.910Z,31.90
2018-10-15T13:16:28.385Z,32.10
2018-10-15T13:21:32.509Z,31.90
2018-10-15T13:26:36.279Z,32.40
2018-10-15T13:41:46.700Z,33.20
2018-10-15T13:46:50.323Z,33.00
2018-10-15T13:51:54.704Z,33.10
2018-10-15T13:56:58.684Z,33.00
2018-10-15T14:02:02.418Z,33.30
2018-10-15T14:07:06.624Z,33.40
2018-10-15T14:17:13.644Z,33.60
2018-10-15T14:22:17.223Z,33.50
2018-10-15T14:27:24.874Z,33.30
2018-10-15T14:42:43.201Z,33.70
2018-10-15T14:47:49.488Z,33.80
2018-10-15T14:52:54.092Z,33.70
2018-10-15T14:57:57.813Z,33.50
2018-10-15T15:03:01.442Z,33.10
2018-10-15T15:08:05.616Z,33.10
2018-10-15T15:13:20.578Z,33.10
2018-10-15T15:18:26.464Z,33.20
2018-10-15T15:23:33.108Z,33.20
2018-10-15T15:28:39.453Z,33.00
2018-10-15T15:33:43.389Z,32.70
2018-10-15T15:49:06.320Z,31.80
2018-10-15T15:54:09.929Z,31.80
2018-10-15T15:59:16.289Z,31.00
2018-10-15T16:04:19.960Z,30.20
2018-10-15T16:14:38.966Z,29.20
2018-10-15T16:19:42.671Z,28.30
2018-10-15T16:24:46.365Z,27.50
2018-10-15T16:29:50.028Z,26.80
2018-10-15T16:34:54.367Z,26.10
2018-10-15T16:39:57.989Z,24.90
2018-10-15T16:50:06.366Z,24.00
2018-10-15T16:55:13.623Z,23.70
2018-10-15T17:00:17.320Z,23.30
2018-10-15T17:05:21.723Z,23.20
2018-10-15T17:15:28.557Z,22.10
2018-10-15T17:20:33.202Z,21.80
2018-10-15T17:25:36.916Z,21.40
2018-10-15T17:30:40.581Z,21.40
2018-10-15T17:40:55.208Z,20.60
2018-10-15T17:45:59.412Z,20.50
2018-10-15T17:51:03.053Z,20.30
2018-10-15T17:56:06.675Z,20.20
2018-10-15T18:01:11.486Z,19.70
2018-10-15T18:11:18.826Z,19.20
2018-10-15T18:16:22.612Z,19.10
2018-10-15T18:21:26.303Z,18.90
2018-10-15T18:26:31.181Z,18.70
2018-10-15T18:31:35.583Z,18.60
2018-10-15T18:41:42.611Z,18.40
2018-10-15T18:46:46.253Z,18.30
2018-10-15T18:51:50.276Z,18.30
2018-10-15T19:01:58.482Z,18.00
2018-10-15T19:07:02.958Z,17.70
2018-10-15T19:12:09.072Z,17.60
2018-10-15T19:17:13.175Z,17.50
2018-10-15T19:22:17.376Z,17.30
2018-10-15T19:27:20.985Z,17.10
2018-10-15T19:37:31.877Z,16.90
2018-10-15T19:42:35.488Z,16.90
2018-10-15T19:47:39.235Z,16.80
2018-10-15T19:52:43.022Z,16.70
2018-10-15T19:57:46.801Z,16.60
2018-10-15T20:02:50.657Z,16.50
2018-10-15T20:07:54.482Z,16.20
2018-10-15T20:12:58.939Z,16.10
2018-10-15T20:18:02.930Z,16.10
2018-10-15T20:23:06.920Z,15.80
2018-10-15T20:33:14.235Z,15.60
2018-10-15T20:38:18.283Z,15.50
2018-10-15T20:43:22.181Z,15.40
2018-10-15T20:48:26.052Z,15.40
2018-10-15T20:53:29.857Z,15.30
2018-10-15T20:58:33.733Z,15.30
2018-10-15T21:03:37.492Z,15.20
2018-10-15T21:08:41.355Z,15.20
2018-10-15T21:13:45.251Z,15.30
2018-10-15T21:18:49.240Z,15.20
2018-10-15T21:23:53.220Z,15.00
2018-10-15T21:28:57.094Z,14.90
2018-10-15T21:34:01.010Z,14.90
2018-10-15T21:39:08.660Z,14.80
2018-10-15T21:44:12.279Z,14.70
2018-10-15T21:49:16.047Z,14.50
2018-10-15T21:54:20.072Z,14.50
2018-10-15T21:59:23.843Z,14.40
2018-10-15T22:04:27.736Z,14.20
2018-10-15T22:09:31.304Z,14.20
2018-10-15T22:14:36.185Z,14.20
2018-10-15T22:19:39.932Z,14.10
2018-10-15T22:24:43.513Z,14.10
2018-10-15T22:29:47.127Z,14.00
2018-10-15T22:34:51.083Z,13.80
2018-10-15T22:39:54.676Z,13.70
2018-10-15T22:44:58.256Z,13.70
2018-10-15T22:50:01.910Z,13.70
2018-10-15T22:55:07.495Z,13.60
2018-10-15T23:00:19.997Z,13.40
2018-10-15T23:05:23.627Z,13.50
2018-10-15T23:10:30.099Z,13.50
2018-10-15T23:15:34.889Z,13.60
2018-10-15T23:20:38.474Z,13.70
2018-10-15T23:25:42.055Z,13.70
2018-10-15T23:30:45.659Z,13.60
2018-10-15T23:35:49.212Z,13.70
2018-10-15T23:40:52.803Z,13.40
2018-10-15T23:45:56.454Z,13.20
2018-10-15T23:51:00.675Z,13.10
2018-10-15T23:56:04.990Z,13.00
